sensor_id;sensor_type;location;lat;lon;timestamp;pressure;altitude;pressure_sealevel;temperature;humidity
12757;BME280;31601;48.042;12.240;2023-04-06T00:02:20;96444.28;;;0.24;59.62
12757;BME280;31601;48.042;12.240;2023-04-06T00:04:48;96447.78;;;0.23;59.77
12757;BME280;31601;48.042;12.240;2023-04-06T00:07:14;96441.94;;;0.21;60.03
12757;BME280;31601;48.042;12.240;2023-04-06T00:09:41;96443.66;;;0.20;60.17
12757;BME280;31601;48.042;12.240;2023-04-06T00:12:07;96438.97;;;0.14;60.52
12757;BME280;31601;48.042;12.240;2023-04-06T00:14:34;96448.91;;;0.07;60.74
12757;BME280;31601;48.042;12.240;2023-04-06T00:17:00;96444.88;;;-0.08;60.89
12757;BME280;31601;48.042;12.240;2023-04-06T00:19:27;96445.28;;;-0.02;61.01
12757;BME280;31601;48.042;12.240;2023-04-06T00:21:54;96443.50;;;-0.01;60.84
12757;BME280;31601;48.042;12.240;2023-04-06T00:24:21;96440.69;;;-0.09;61.29
12757;BME280;31601;48.042;12.240;2023-04-06T00:26:47;96441.72;;;-0.12;61.44
12757;BME280;31601;48.042;12.240;2023-04-06T00:29:13;96439.72;;;-0.08;61.15
12757;BME280;31601;48.042;12.240;2023-04-06T00:31:40;96442.06;;;-0.16;61.38
12757;BME280;31601;48.042;12.240;2023-04-06T00:34:06;96435.81;;;-0.25;61.56
12757;BME280;31601;48.042;12.240;2023-04-06T00:36:33;96436.00;;;-0.40;62.06
12757;BME280;31601;48.042;12.240;2023-04-06T00:39:00;96433.19;;;-0.37;61.83
12757;BME280;31601;48.042;12.240;2023-04-06T00:41:27;96432.63;;;-0.29;61.69
12757;BME280;31601;48.042;12.240;2023-04-06T00:43:53;96430.06;;;-0.29;61.64
12757;BME280;31601;48.042;12.240;2023-04-06T00:46:20;96438.59;;;-0.28;61.69
12757;BME280;31601;48.042;12.240;2023-04-06T00:48:46;96430.97;;;-0.30;61.48
12757;BME280;31601;48.042;12.240;2023-04-06T00:51:13;96430.75;;;-0.27;61.53
12757;BME280;31601;48.042;12.240;2023-04-06T00:53:39;96428.63;;;-0.33;61.51
12757;BME280;31601;48.042;12.240;2023-04-06T00:56:07;96429.25;;;-0.29;61.63
12757;BME280;31601;48.042;12.240;2023-04-06T00:58:35;96428.50;;;-0.31;61.16
12757;BME280;31601;48.042;12.240;2023-04-06T01:01:03;96427.34;;;-0.39;61.40
12757;BME280;31601;48.042;12.240;2023-04-06T01:03:29;96430.63;;;-0.37;61.27
12757;BME280;31601;48.042;12.240;2023-04-06T01:05:56;96433.41;;;-0.40;61.37
12757;BME280;31601;48.042;12.240;2023-04-06T01:08:23;96428.16;;;-0.38;61.44
12757;BME280;31601;48.042;12.240;2023-04-06T01:10:49;96434.22;;;-0.39;61.17
12757;BME280;31601;48.042;12.240;2023-04-06T01:13:17;96421.34;;;-0.39;61.53
12757;BME280;31601;48.042;12.240;2023-04-06T01:15:45;96425.47;;;-0.37;61.64
12757;BME280;31601;48.042;12.240;2023-04-06T01:18:12;96429.81;;;-0.37;61.05
12757;BME280;31601;48.042;12.240;2023-04-06T01:20:38;96431.38;;;-0.47;61.25
12757;BME280;31601;48.042;12.240;2023-04-06T01:23:06;96432.97;;;-0.58;61.61
12757;BME280;31601;48.042;12.240;2023-04-06T01:25:33;96433.91;;;-0.59;61.78
12757;BME280;31601;48.042;12.240;2023-04-06T01:27:59;96431.94;;;-0.55;61.56
12757;BME280;31601;48.042;12.240;2023-04-06T01:30:26;96426.09;;;-0.57;61.60
12757;BME280;31601;48.042;12.240;2023-04-06T01:32:52;96427.00;;;-0.58;60.93
12757;BME280;31601;48.042;12.240;2023-04-06T01:35:19;96426.41;;;-0.62;61.50
12757;BME280;31601;48.042;12.240;2023-04-06T01:37:45;96420.75;;;-0.67;61.14
12757;BME280;31601;48.042;12.240;2023-04-06T01:40:13;96420.03;;;-0.69;61.18
12757;BME280;31601;48.042;12.240;2023-04-06T01:42:40;96416.34;;;-0.78;61.45
12757;BME280;31601;48.042;12.240;2023-04-06T01:45:08;96418.59;;;-0.73;61.43
12757;BME280;31601;48.042;12.240;2023-04-06T01:47:34;96406.88;;;-0.77;61.85
12757;BME280;31601;48.042;12.240;2023-04-06T01:50:01;96406.88;;;-0.77;61.52
12757;BME280;31601;48.042;12.240;2023-04-06T01:52:27;96408.50;;;-0.76;61.47
12757;BME280;31601;48.042;12.240;2023-04-06T01:54:54;96406.38;;;-0.82;61.95
12757;BME280;31601;48.042;12.240;2023-04-06T01:57:21;96409.56;;;-0.79;62.49
12757;BME280;31601;48.042;12.240;2023-04-06T01:59:48;96405.84;;;-0.75;62.87
12757;BME280;31601;48.042;12.240;2023-04-06T02:02:14;96413.44;;;-0.73;62.77
12757;BME280;31601;48.042;12.240;2023-04-06T02:04:41;96411.81;;;-0.74;62.76
12757;BME280;31601;48.042;12.240;2023-04-06T02:07:07;96417.91;;;-0.75;62.82
12757;BME280;31601;48.042;12.240;2023-04-06T02:09:34;96419.03;;;-0.79;62.53
12757;BME280;31601;48.042;12.240;2023-04-06T02:12:01;96407.31;;;-0.83;62.58
12757;BME280;31601;48.042;12.240;2023-04-06T02:14:28;96413.28;;;-0.83;62.42
12757;BME280;31601;48.042;12.240;2023-04-06T02:16:55;96416.19;;;-0.87;62.28
12757;BME280;31601;48.042;12.240;2023-04-06T02:19:21;96411.25;;;-0.91;62.33
12757;BME280;31601;48.042;12.240;2023-04-06T02:21:48;96417.97;;;-1.01;62.32
12757;BME280;31601;48.042;12.240;2023-04-06T02:24:14;96417.69;;;-1.09;63.20
12757;BME280;31601;48.042;12.240;2023-04-06T02:26:41;96424.50;;;-1.08;62.33
12757;BME280;31601;48.042;12.240;2023-04-06T02:29:07;96422.03;;;-1.22;62.85
12757;BME280;31601;48.042;12.240;2023-04-06T02:31:36;96418.56;;;-1.34;63.37
12757;BME280;31601;48.042;12.240;2023-04-06T02:34:02;96421.69;;;-1.42;63.39
12757;BME280;31601;48.042;12.240;2023-04-06T02:36:28;96414.97;;;-1.45;63.49
12757;BME280;31601;48.042;12.240;2023-04-06T02:38:55;96419.72;;;-1.51;63.85
12757;BME280;31601;48.042;12.240;2023-04-06T02:41:22;96424.97;;;-1.53;63.91
12757;BME280;31601;48.042;12.240;2023-04-06T02:43:48;96425.59;;;-1.49;63.39
12757;BME280;31601;48.042;12.240;2023-04-06T02:46:15;96426.09;;;-1.57;64.17
12757;BME280;31601;48.042;12.240;2023-04-06T02:48:42;96423.13;;;-1.64;63.98
12757;BME280;31601;48.042;12.240;2023-04-06T02:51:09;96417.88;;;-1.75;64.61
12757;BME280;31601;48.042;12.240;2023-04-06T02:53:35;96412.53;;;-1.59;63.86
12757;BME280;31601;48.042;12.240;2023-04-06T02:56:01;96414.69;;;-1.53;63.70
12757;BME280;31601;48.042;12.240;2023-04-06T02:58:28;96412.63;;;-1.48;64.00
12757;BME280;31601;48.042;12.240;2023-04-06T03:00:54;96411.81;;;-1.48;64.18
12757;BME280;31601;48.042;12.240;2023-04-06T03:03:21;96403.44;;;-1.39;63.97
12757;BME280;31601;48.042;12.240;2023-04-06T03:05:48;96409.19;;;-1.35;63.88
12757;BME280;31601;48.042;12.240;2023-04-06T03:08:15;96413.13;;;-1.30;63.71
12757;BME280;31601;48.042;12.240;2023-04-06T03:10:41;96414.66;;;-1.40;63.29
12757;BME280;31601;48.042;12.240;2023-04-06T03:13:08;96422.59;;;-1.43;63.67
12757;BME280;31601;48.042;12.240;2023-04-06T03:15:34;96416.31;;;-1.52;63.52
12757;BME280;31601;48.042;12.240;2023-04-06T03:18:01;96423.13;;;-1.51;63.33
12757;BME280;31601;48.042;12.240;2023-04-06T03:20:27;96417.88;;;-1.49;63.41
12757;BME280;31601;48.042;12.240;2023-04-06T03:22:55;96421.78;;;-1.43;63.50
12757;BME280;31601;48.042;12.240;2023-04-06T03:25:21;96430.09;;;-1.40;63.34
12757;BME280;31601;48.042;12.240;2023-04-06T03:27:47;96425.88;;;-1.41;62.98
12757;BME280;31601;48.042;12.240;2023-04-06T03:30:14;96432.38;;;-1.48;63.02
12757;BME280;31601;48.042;12.240;2023-04-06T03:32:42;96433.50;;;-1.52;63.43
12757;BME280;31601;48.042;12.240;2023-04-06T03:35:09;96424.97;;;-1.66;64.12
12757;BME280;31601;48.042;12.240;2023-04-06T03:37:35;96434.53;;;-1.68;63.93
12757;BME280;31601;48.042;12.240;2023-04-06T03:40:04;96437.84;;;-1.66;63.60
12757;BME280;31601;48.042;12.240;2023-04-06T03:42:31;96439.78;;;-1.69;63.95
12757;BME280;31601;48.042;12.240;2023-04-06T03:44:58;96435.56;;;-1.83;64.20
12757;BME280;31601;48.042;12.240;2023-04-06T03:47:24;96438.34;;;-1.86;64.10
12757;BME280;31601;48.042;12.240;2023-04-06T03:49:51;96438.44;;;-1.88;64.03
12757;BME280;31601;48.042;12.240;2023-04-06T03:52:17;96437.94;;;-1.80;63.80
12757;BME280;31601;48.042;12.240;2023-04-06T03:54:44;96444.22;;;-1.71;63.76
12757;BME280;31601;48.042;12.240;2023-04-06T03:57:11;96439.78;;;-1.69;63.94
12757;BME280;31601;48.042;12.240;2023-04-06T03:59:38;96442.56;;;-1.72;63.90
12757;BME280;31601;48.042;12.240;2023-04-06T04:02:04;96441.56;;;-1.70;64.21
12757;BME280;31601;48.042;12.240;2023-04-06T04:04:31;96444.72;;;-1.66;64.07
12757;BME280;31601;48.042;12.240;2023-04-06T04:06:57;96450.91;;;-1.69;64.05
12757;BME280;31601;48.042;12.240;2023-04-06T04:09:23;96442.56;;;-1.72;63.58
12757;BME280;31601;48.042;12.240;2023-04-06T04:11:50;96450.47;;;-1.63;63.43
12757;BME280;31601;48.042;12.240;2023-04-06T04:14:17;96446.09;;;-1.60;63.49
12757;BME280;31601;48.042;12.240;2023-04-06T04:16:44;96445.03;;;-1.58;63.67
12757;BME280;31601;48.042;12.240;2023-04-06T04:19:10;96443.38;;;-1.72;63.41
12757;BME280;31601;48.042;12.240;2023-04-06T04:21:42;96447.72;;;-1.72;63.57
12757;BME280;31601;48.042;12.240;2023-04-06T04:24:09;96449.38;;;-1.71;63.04
12757;BME280;31601;48.042;12.240;2023-04-06T04:26:35;96448.63;;;-1.73;62.91
12757;BME280;31601;48.042;12.240;2023-04-06T04:29:02;96453.16;;;-1.77;62.74
12757;BME280;31601;48.042;12.240;2023-04-06T04:31:30;96451.50;;;-1.78;62.70
12757;BME280;31601;48.042;12.240;2023-04-06T04:33:57;96462.63;;;-1.77;62.52
12757;BME280;31601;48.042;12.240;2023-04-06T04:36:23;96454.94;;;-1.77;62.47
12757;BME280;31601;48.042;12.240;2023-04-06T04:38:51;96461.69;;;-1.76;62.88
12757;BME280;31601;48.042;12.240;2023-04-06T04:41:17;96463.25;;;-1.74;62.95
12757;BME280;31601;48.042;12.240;2023-04-06T04:43:44;96462.34;;;-1.73;62.74
12757;BME280;31601;48.042;12.240;2023-04-06T04:46:10;96468.00;;;-1.68;62.40
12757;BME280;31601;48.042;12.240;2023-04-06T04:48:38;96466.34;;;-1.69;63.12
12757;BME280;31601;48.042;12.240;2023-04-06T04:51:04;96468.81;;;-1.67;62.78
12757;BME280;31601;48.042;12.240;2023-04-06T04:53:31;96473.63;;;-1.63;62.32
12757;BME280;31601;48.042;12.240;2023-04-06T04:55:57;96467.56;;;-1.62;62.38
12757;BME280;31601;48.042;12.240;2023-04-06T04:58:24;96470.47;;;-1.66;63.09
12757;BME280;31601;48.042;12.240;2023-04-06T05:00:50;96466.34;;;-1.82;63.45
12757;BME280;31601;48.042;12.240;2023-04-06T05:03:21;96462.41;;;-1.87;63.27
12757;BME280;31601;48.042;12.240;2023-04-06T05:05:49;96461.19;;;-1.82;63.17
12757;BME280;31601;48.042;12.240;2023-04-06T05:08:16;96463.25;;;-1.87;63.82
12757;BME280;31601;48.042;12.240;2023-04-06T05:10:43;96466.22;;;-1.80;63.38
12757;BME280;31601;48.042;12.240;2023-04-06T05:13:09;96469.19;;;-1.99;63.79
12757;BME280;31601;48.042;12.240;2023-04-06T05:15:36;96474.34;;;-1.99;64.04
12757;BME280;31601;48.042;12.240;2023-04-06T05:18:04;96469.31;;;-1.88;64.40
12757;BME280;31601;48.042;12.240;2023-04-06T05:20:31;96474.34;;;-1.73;64.26
12757;BME280;31601;48.042;12.240;2023-04-06T05:22:59;96480.25;;;-1.58;63.83
12757;BME280;31601;48.042;12.240;2023-04-06T05:25:25;96477.75;;;-1.47;63.80
12757;BME280;31601;48.042;12.240;2023-04-06T05:27:52;96479.53;;;-1.48;62.91
12757;BME280;31601;48.042;12.240;2023-04-06T05:30:19;96476.03;;;-1.34;62.88
12757;BME280;31601;48.042;12.240;2023-04-06T05:32:46;96478.56;;;-1.21;62.85
12757;BME280;31601;48.042;12.240;2023-04-06T05:35:13;96476.72;;;-1.06;62.29
12757;BME280;31601;48.042;12.240;2023-04-06T05:37:40;96473.50;;;-0.97;62.37
12757;BME280;31601;48.042;12.240;2023-04-06T05:40:08;96475.56;;;-1.02;63.51
12757;BME280;31601;48.042;12.240;2023-04-06T05:42:36;96477.78;;;-0.84;63.25
12757;BME280;31601;48.042;12.240;2023-04-06T05:45:03;96468.03;;;-0.55;62.21
12757;BME280;31601;48.042;12.240;2023-04-06T05:47:30;96474.56;;;-0.38;62.34
12757;BME280;31601;48.042;12.240;2023-04-06T05:49:57;96474.59;;;-0.27;62.30
12757;BME280;31601;48.042;12.240;2023-04-06T05:52:23;96471.75;;;-0.11;62.08
12757;BME280;31601;48.042;12.240;2023-04-06T05:54:49;96476.59;;;0.05;61.89
12757;BME280;31601;48.042;12.240;2023-04-06T05:57:17;96472.16;;;0.18;61.31
12757;BME280;31601;48.042;12.240;2023-04-06T05:59:44;96475.69;;;0.17;61.33
12757;BME280;31601;48.042;12.240;2023-04-06T06:02:10;96467.34;;;0.14;61.37
12757;BME280;31601;48.042;12.240;2023-04-06T06:04:36;96470.88;;;0.13;62.29
12757;BME280;31601;48.042;12.240;2023-04-06T06:07:03;96472.66;;;0.24;61.46
12757;BME280;31601;48.042;12.240;2023-04-06T06:09:30;96482.78;;;0.49;60.99
12757;BME280;31601;48.042;12.240;2023-04-06T06:11:57;96487.03;;;0.50;61.04
12757;BME280;31601;48.042;12.240;2023-04-06T06:14:24;96478.00;;;0.56;60.99
12757;BME280;31601;48.042;12.240;2023-04-06T06:16:53;96485.53;;;0.70;60.95
12757;BME280;31601;48.042;12.240;2023-04-06T06:19:19;96485.44;;;0.95;60.41
12757;BME280;31601;48.042;12.240;2023-04-06T06:21:46;96482.13;;;1.04;60.26
12757;BME280;31601;48.042;12.240;2023-04-06T06:24:12;96490.81;;;1.25;60.05
12757;BME280;31601;48.042;12.240;2023-04-06T06:26:39;96483.59;;;1.40;59.51
12757;BME280;31601;48.042;12.240;2023-04-06T06:29:06;96484.94;;;1.35;59.50
12757;BME280;31601;48.042;12.240;2023-04-06T06:31:33;96489.72;;;1.39;59.69
12757;BME280;31601;48.042;12.240;2023-04-06T06:34:00;96487.13;;;1.83;58.69
12757;BME280;31601;48.042;12.240;2023-04-06T06:36:27;96485.72;;;1.79;57.97
12757;BME280;31601;48.042;12.240;2023-04-06T06:38:53;96485.22;;;1.96;57.98
12757;BME280;31601;48.042;12.240;2023-04-06T06:41:20;96483.75;;;2.04;58.53
12757;BME280;31601;48.042;12.240;2023-04-06T06:43:46;96483.84;;;2.35;58.22
12757;BME280;31601;48.042;12.240;2023-04-06T06:46:12;96481.63;;;2.51;57.43
12757;BME280;31601;48.042;12.240;2023-04-06T06:48:40;96476.84;;;2.67;57.37
12757;BME280;31601;48.042;12.240;2023-04-06T06:51:07;96477.34;;;2.61;57.28
12757;BME280;31601;48.042;12.240;2023-04-06T06:53:34;96478.81;;;2.85;56.50
12757;BME280;31601;48.042;12.240;2023-04-06T06:56:01;96486.44;;;2.77;57.38
12757;BME280;31601;48.042;12.240;2023-04-06T06:58:27;96481.06;;;2.99;57.39
12757;BME280;31601;48.042;12.240;2023-04-06T07:00:55;96481.66;;;3.13;57.24
12757;BME280;31601;48.042;12.240;2023-04-06T07:03:22;96483.88;;;3.27;55.92
12757;BME280;31601;48.042;12.240;2023-04-06T07:05:50;96483.66;;;3.40;55.14
12757;BME280;31601;48.042;12.240;2023-04-06T07:08:19;96476.06;;;3.68;54.09
12757;BME280;31601;48.042;12.240;2023-04-06T07:10:45;96475.38;;;3.66;53.42
12757;BME280;31601;48.042;12.240;2023-04-06T07:13:11;96472.25;;;4.01;53.27
12757;BME280;31601;48.042;12.240;2023-04-06T07:15:39;96475.25;;;3.87;52.97
12757;BME280;31601;48.042;12.240;2023-04-06T07:18:06;96470.75;;;4.28;52.84
12757;BME280;31601;48.042;12.240;2023-04-06T07:20:32;96484.91;;;4.63;52.18
12757;BME280;31601;48.042;12.240;2023-04-06T07:23:00;96476.53;;;4.69;51.42
12757;BME280;31601;48.042;12.240;2023-04-06T07:25:27;96482.19;;;4.55;51.48
12757;BME280;31601;48.042;12.240;2023-04-06T07:27:54;96480.50;;;4.73;50.73
12757;BME280;31601;48.042;12.240;2023-04-06T07:30:20;96477.63;;;5.14;50.75
12757;BME280;31601;48.042;12.240;2023-04-06T07:32:48;96479.91;;;5.27;50.45
12757;BME280;31601;48.042;12.240;2023-04-06T07:35:14;96483.69;;;5.32;49.58
12757;BME280;31601;48.042;12.240;2023-04-06T07:37:41;96472.13;;;5.45;49.66
12757;BME280;31601;48.042;12.240;2023-04-06T07:40:10;96482.69;;;5.43;49.93
12757;BME280;31601;48.042;12.240;2023-04-06T07:42:36;96475.75;;;5.80;51.17
12757;BME280;31601;48.042;12.240;2023-04-06T07:45:03;96477.16;;;5.74;51.71
12757;BME280;31601;48.042;12.240;2023-04-06T07:47:30;96477.31;;;5.72;50.58
12757;BME280;31601;48.042;12.240;2023-04-06T07:49:56;96481.59;;;5.64;50.19
12757;BME280;31601;48.042;12.240;2023-04-06T07:52:23;96474.09;;;5.79;50.57
12757;BME280;31601;48.042;12.240;2023-04-06T07:54:49;96475.69;;;6.25;50.07
12757;BME280;31601;48.042;12.240;2023-04-06T07:57:17;96476.34;;;6.72;48.92
12757;BME280;31601;48.042;12.240;2023-04-06T07:59:44;96473.81;;;6.80;49.07
12757;BME280;31601;48.042;12.240;2023-04-06T08:02:10;96469.53;;;6.26;50.33
12757;BME280;31601;48.042;12.240;2023-04-06T08:04:36;96470.59;;;6.60;50.04
12757;BME280;31601;48.042;12.240;2023-04-06T08:07:03;96471.22;;;6.18;49.63
12757;BME280;31601;48.042;12.240;2023-04-06T08:09:29;96473.22;;;6.24;49.95
12757;BME280;31601;48.042;12.240;2023-04-06T08:11:55;96471.53;;;6.33;48.43
12757;BME280;31601;48.042;12.240;2023-04-06T08:14:23;96475.34;;;6.65;47.44
12757;BME280;31601;48.042;12.240;2023-04-06T08:16:50;96479.53;;;6.57;47.61
12757;BME280;31601;48.042;12.240;2023-04-06T08:19:16;96470.59;;;6.86;47.24
12757;BME280;31601;48.042;12.240;2023-04-06T08:21:44;96469.59;;;6.61;47.05
12757;BME280;31601;48.042;12.240;2023-04-06T08:24:11;96471.47;;;7.38;46.33
12757;BME280;31601;48.042;12.240;2023-04-06T08:26:37;96465.91;;;6.98;45.14
12757;BME280;31601;48.042;12.240;2023-04-06T08:29:04;96472.75;;;7.33;45.62
12757;BME280;31601;48.042;12.240;2023-04-06T08:31:33;96461.44;;;7.67;45.06
12757;BME280;31601;48.042;12.240;2023-04-06T08:34:00;96462.00;;;8.04;44.71
12757;BME280;31601;48.042;12.240;2023-04-06T08:36:27;96461.16;;;8.20;44.80
12757;BME280;31601;48.042;12.240;2023-04-06T08:38:53;96461.66;;;8.07;43.39
12757;BME280;31601;48.042;12.240;2023-04-06T08:41:19;96466.44;;;8.45;43.47
12757;BME280;31601;48.042;12.240;2023-04-06T08:43:48;96463.00;;;8.52;42.78
12757;BME280;31601;48.042;12.240;2023-04-06T08:46:15;96470.81;;;8.69;42.77
12757;BME280;31601;48.042;12.240;2023-04-06T08:48:43;96465.59;;;8.69;41.68
12757;BME280;31601;48.042;12.240;2023-04-06T08:51:10;96467.44;;;8.44;40.83
12757;BME280;31601;48.042;12.240;2023-04-06T08:53:36;96463.63;;;8.21;41.80
12757;BME280;31601;48.042;12.240;2023-04-06T08:56:04;96465.28;;;8.55;42.31
12757;BME280;31601;48.042;12.240;2023-04-06T08:58:34;96472.00;;;8.50;40.95
12757;BME280;31601;48.042;12.240;2023-04-06T09:01:02;96470.19;;;8.50;41.60
12757;BME280;31601;48.042;12.240;2023-04-06T09:03:31;96460.47;;;8.92;41.56
12757;BME280;31601;48.042;12.240;2023-04-06T09:05:59;96461.53;;;9.22;41.35
12757;BME280;31601;48.042;12.240;2023-04-06T09:08:26;96460.66;;;9.38;41.10
12757;BME280;31601;48.042;12.240;2023-04-06T09:10:52;96458.59;;;9.17;39.52
12757;BME280;31601;48.042;12.240;2023-04-06T09:13:19;96458.91;;;8.58;40.71
12757;BME280;31601;48.042;12.240;2023-04-06T09:15:45;96455.47;;;9.22;40.42
12757;BME280;31601;48.042;12.240;2023-04-06T09:18:11;96462.09;;;9.01;39.45
12757;BME280;31601;48.042;12.240;2023-04-06T09:20:38;96455.06;;;9.41;39.22
12757;BME280;31601;48.042;12.240;2023-04-06T09:23:05;96446.91;;;9.67;39.86
12757;BME280;31601;48.042;12.240;2023-04-06T09:25:32;96454.94;;;9.35;38.02
12757;BME280;31601;48.042;12.240;2023-04-06T09:27:59;96451.81;;;8.91;39.00
12757;BME280;31601;48.042;12.240;2023-04-06T09:30:25;96440.25;;;9.57;39.29
12757;BME280;31601;48.042;12.240;2023-04-06T09:32:53;96438.84;;;10.00;39.12
12757;BME280;31601;48.042;12.240;2023-04-06T09:35:20;96444.19;;;10.30;38.63
12757;BME280;31601;48.042;12.240;2023-04-06T09:37:47;96436.69;;;10.50;36.91
12757;BME280;31601;48.042;12.240;2023-04-06T09:40:16;96435.53;;;10.68;35.82
12757;BME280;31601;48.042;12.240;2023-04-06T09:42:45;96432.44;;;10.79;36.17
12757;BME280;31601;48.042;12.240;2023-04-06T09:45:12;96433.88;;;10.67;33.25
12757;BME280;31601;48.042;12.240;2023-04-06T09:47:40;96437.06;;;10.01;35.87
12757;BME280;31601;48.042;12.240;2023-04-06T09:50:10;96434.94;;;9.73;34.23
12757;BME280;31601;48.042;12.240;2023-04-06T09:52:40;96428.50;;;10.07;32.37
12757;BME280;31601;48.042;12.240;2023-04-06T09:55:08;96432.06;;;9.28;32.59
12757;BME280;31601;48.042;12.240;2023-04-06T09:57:43;96432.41;;;9.25;33.07
12757;BME280;31601;48.042;12.240;2023-04-06T10:00:13;96425.19;;;9.59;32.77
12757;BME280;31601;48.042;12.240;2023-04-06T10:02:48;96424.72;;;9.55;32.34
12757;BME280;31601;48.042;12.240;2023-04-06T10:05:20;96420.56;;;10.15;33.19
12757;BME280;31601;48.042;12.240;2023-04-06T10:07:50;96419.50;;;9.78;33.21
12757;BME280;31601;48.042;12.240;2023-04-06T10:10:20;96418.56;;;10.41;33.91
12757;BME280;31601;48.042;12.240;2023-04-06T10:12:48;96417.03;;;10.46;34.37
12757;BME280;31601;48.042;12.240;2023-04-06T10:15:15;96412.94;;;9.82;32.40
12757;BME280;31601;48.042;12.240;2023-04-06T10:17:42;96413.34;;;10.55;32.46
12757;BME280;31601;48.042;12.240;2023-04-06T10:20:12;96415.78;;;10.72;31.81
12757;BME280;31601;48.042;12.240;2023-04-06T10:22:43;96411.72;;;10.99;30.57
12757;BME280;31601;48.042;12.240;2023-04-06T10:25:16;96407.91;;;11.17;31.19
12757;BME280;31601;48.042;12.240;2023-04-06T10:27:42;96407.09;;;11.01;30.39
12757;BME280;31601;48.042;12.240;2023-04-06T10:30:10;96401.09;;;11.37;31.40
12757;BME280;31601;48.042;12.240;2023-04-06T10:32:38;96395.69;;;11.60;31.02
12757;BME280;31601;48.042;12.240;2023-04-06T10:35:06;96398.91;;;11.41;30.41
12757;BME280;31601;48.042;12.240;2023-04-06T10:37:46;96399.47;;;11.73;31.03
12757;BME280;31601;48.042;12.240;2023-04-06T10:40:18;96397.47;;;11.96;32.26
12757;BME280;31601;48.042;12.240;2023-04-06T10:42:45;96395.91;;;12.24;31.93
12757;BME280;31601;48.042;12.240;2023-04-06T10:45:20;96389.50;;;12.33;31.53
12757;BME280;31601;48.042;12.240;2023-04-06T10:47:47;96394.97;;;12.66;30.67
12757;BME280;31601;48.042;12.240;2023-04-06T10:50:15;96384.09;;;12.41;28.68
12757;BME280;31601;48.042;12.240;2023-04-06T10:52:41;96384.06;;;11.91;30.12
12757;BME280;31601;48.042;12.240;2023-04-06T10:55:08;96387.91;;;12.39;29.57
12757;BME280;31601;48.042;12.240;2023-04-06T10:57:35;96388.47;;;12.34;29.78
12757;BME280;31601;48.042;12.240;2023-04-06T11:00:04;96389.00;;;12.79;29.79
12757;BME280;31601;48.042;12.240;2023-04-06T11:02:31;96382.00;;;12.30;29.25
12757;BME280;31601;48.042;12.240;2023-04-06T11:04:58;96387.28;;;12.65;29.89
12757;BME280;31601;48.042;12.240;2023-04-06T11:07:25;96379.19;;;12.31;28.81
12757;BME280;31601;48.042;12.240;2023-04-06T11:09:52;96382.69;;;12.17;28.09
12757;BME280;31601;48.042;12.240;2023-04-06T11:12:23;96382.56;;;12.53;31.47
12757;BME280;31601;48.042;12.240;2023-04-06T11:14:54;96384.91;;;13.12;30.02
12757;BME280;31601;48.042;12.240;2023-04-06T11:17:26;96372.03;;;13.30;28.51
12757;BME280;31601;48.042;12.240;2023-04-06T11:19:54;96367.25;;;13.47;27.92
12757;BME280;31601;48.042;12.240;2023-04-06T11:22:20;96370.69;;;12.99;28.06
12757;BME280;31601;48.042;12.240;2023-04-06T11:24:46;96373.53;;;12.34;28.56
12757;BME280;31601;48.042;12.240;2023-04-06T11:27:14;96368.34;;;12.48;28.41
12757;BME280;31601;48.042;12.240;2023-04-06T11:29:41;96369.97;;;12.49;31.19
12757;BME280;31601;48.042;12.240;2023-04-06T11:32:07;96367.63;;;11.46;29.57
12757;BME280;31601;48.042;12.240;2023-04-06T11:34:35;96359.66;;;11.76;29.05
12757;BME280;31601;48.042;12.240;2023-04-06T11:37:07;96363.22;;;11.68;28.73
12757;BME280;31601;48.042;12.240;2023-04-06T11:39:38;96355.53;;;11.67;30.69
12757;BME280;31601;48.042;12.240;2023-04-06T11:42:05;96348.44;;;11.89;28.67
12757;BME280;31601;48.042;12.240;2023-04-06T11:44:33;96347.59;;;12.66;29.23
12757;BME280;31601;48.042;12.240;2023-04-06T11:47:01;96347.00;;;12.64;29.58
12757;BME280;31601;48.042;12.240;2023-04-06T11:49:28;96346.31;;;12.84;30.20
12757;BME280;31601;48.042;12.240;2023-04-06T11:51:54;96341.78;;;12.36;30.75
12757;BME280;31601;48.042;12.240;2023-04-06T11:54:31;96340.72;;;12.65;29.97
12757;BME280;31601;48.042;12.240;2023-04-06T11:56:57;96338.31;;;13.12;30.24
12757;BME280;31601;48.042;12.240;2023-04-06T11:59:24;96331.56;;;13.45;30.20
12757;BME280;31601;48.042;12.240;2023-04-06T12:01:50;96328.56;;;13.74;29.10
12757;BME280;31601;48.042;12.240;2023-04-06T12:04:18;96325.53;;;14.11;27.52
12757;BME280;31601;48.042;12.240;2023-04-06T12:06:44;96325.13;;;14.27;27.95
12757;BME280;31601;48.042;12.240;2023-04-06T12:09:11;96332.97;;;12.99;28.64
12757;BME280;31601;48.042;12.240;2023-04-06T12:11:38;96324.25;;;13.40;27.71
12757;BME280;31601;48.042;12.240;2023-04-06T12:14:06;96322.09;;;13.08;28.64
12757;BME280;31601;48.042;12.240;2023-04-06T12:16:32;96324.09;;;13.00;28.43
12757;BME280;31601;48.042;12.240;2023-04-06T12:18:59;96324.25;;;11.93;28.92
12757;BME280;31601;48.042;12.240;2023-04-06T12:21:26;96318.41;;;12.26;28.68
12757;BME280;31601;48.042;12.240;2023-04-06T12:23:53;96318.97;;;11.72;30.28
12757;BME280;31601;48.042;12.240;2023-04-06T12:26:19;96318.47;;;11.61;30.19
12757;BME280;31601;48.042;12.240;2023-04-06T12:28:47;96316.22;;;11.58;30.86
12757;BME280;31601;48.042;12.240;2023-04-06T12:31:16;96314.78;;;11.56;29.48
12757;BME280;31601;48.042;12.240;2023-04-06T12:33:43;96316.97;;;11.95;29.29
12757;BME280;31601;48.042;12.240;2023-04-06T12:36:11;96315.34;;;11.73;29.87
12757;BME280;31601;48.042;12.240;2023-04-06T12:38:38;96310.34;;;11.78;27.86
12757;BME280;31601;48.042;12.240;2023-04-06T12:41:06;96301.03;;;12.25;28.16
12757;BME280;31601;48.042;12.240;2023-04-06T12:43:32;96301.06;;;12.04;28.54
12757;BME280;31601;48.042;12.240;2023-04-06T12:46:00;96301.09;;;12.39;28.72
12757;BME280;31601;48.042;12.240;2023-04-06T12:48:26;96299.53;;;12.51;28.40
12757;BME280;31601;48.042;12.240;2023-04-06T12:50:57;96288.38;;;12.84;29.78
12757;BME280;31601;48.042;12.240;2023-04-06T12:53:24;96290.09;;;13.18;28.05